YPGV/GOV METAR and TAF weather

Enter ICAO airport designator
Station Type Date Time Source
YPGV METAR 2019/10/23 02:00 UTC NOAA

YPGV 230200Z AUTO 08016KT 9999 // BKN028 BKN036 30/20 Q1013


Station Type Date Time Source
YPGV Decoded METAR 2019/10/23 02:00 UTC NOAA

Station name not available
Oct 22, 2019 - 10:00 PM EDT / 2019.10.23 0200 UTC
Wind: from the E (080 degrees) at 18 MPH (16 KT):0
Visibility: greater than 7 mile(s):0
Sky conditions: mostly cloudy
Temperature: 86 F (30 C)
Dew Point: 68 F (20 C)
Relative Humidity: 55%
Pressure (altimeter): 29.91 in. Hg (1013 hPa)
ob: YPGV 230200Z AUTO 08016KT 9999 // BKN028 BKN036 30/20 Q1013
cycle: 2

Station Type Date Time Source
YPGV TAF 2019/10/23 02:00 UTC NOAA

TAF YPGV 230055Z 2302/2314 09016KT 9999 SCT025
FM230800 10005KT 9999 SCT020

Example: see airport list